sensor_id;sensor_type;location;lat;lon;timestamp;temperature;humidity
49731;DHT22;35622;52.008;5.426;2022-08-19T00:00:08;20.50;62.70
49731;DHT22;35622;52.008;5.426;2022-08-19T00:02:35;20.50;62.80
49731;DHT22;35622;52.008;5.426;2022-08-19T00:05:00;20.50;62.80
49731;DHT22;35622;52.008;5.426;2022-08-19T00:07:26;20.40;62.70
49731;DHT22;35622;52.008;5.426;2022-08-19T00:09:52;20.40;62.70
49731;DHT22;35622;52.008;5.426;2022-08-19T00:12:19;20.40;62.70
49731;DHT22;35622;52.008;5.426;2022-08-19T00:14:45;20.30;62.70
49731;DHT22;35622;52.008;5.426;2022-08-19T00:17:10;20.30;62.70
49731;DHT22;35622;52.008;5.426;2022-08-19T00:19:36;20.30;62.90
49731;DHT22;35622;52.008;5.426;2022-08-19T00:22:02;20.30;62.90
49731;DHT22;35622;52.008;5.426;2022-08-19T00:24:28;20.20;62.80
49731;DHT22;35622;52.008;5.426;2022-08-19T00:26:55;20.20;62.90
49731;DHT22;35622;52.008;5.426;2022-08-19T00:29:23;20.20;63.00
49731;DHT22;35622;52.008;5.426;2022-08-19T00:31:49;20.20;63.00
49731;DHT22;35622;52.008;5.426;2022-08-19T00:34:15;20.20;63.10
49731;DHT22;35622;52.008;5.426;2022-08-19T00:36:41;20.10;63.20
49731;DHT22;35622;52.008;5.426;2022-08-19T00:39:07;20.10;63.30
49731;DHT22;35622;52.008;5.426;2022-08-19T00:41:33;20.10;63.30
49731;DHT22;35622;52.008;5.426;2022-08-19T00:46:36;20.10;63.30
49731;DHT22;35622;52.008;5.426;2022-08-19T00:49:12;20.00;63.20
49731;DHT22;35622;52.008;5.426;2022-08-19T00:51:41;20.00;63.30
49731;DHT22;35622;52.008;5.426;2022-08-19T00:54:08;19.90;63.40
49731;DHT22;35622;52.008;5.426;2022-08-19T00:56:34;19.90;63.50
49731;DHT22;35622;52.008;5.426;2022-08-19T00:59:01;19.90;63.60
49731;DHT22;35622;52.008;5.426;2022-08-19T01:01:28;19.90;63.50
49731;DHT22;35622;52.008;5.426;2022-08-19T01:03:54;19.90;63.50
49731;DHT22;35622;52.008;5.426;2022-08-19T01:06:19;19.90;63.50
49731;DHT22;35622;52.008;5.426;2022-08-19T01:08:45;19.80;63.50
49731;DHT22;35622;52.008;5.426;2022-08-19T01:11:11;19.80;63.50
49731;DHT22;35622;52.008;5.426;2022-08-19T01:13:37;19.80;63.60
49731;DHT22;35622;52.008;5.426;2022-08-19T01:16:08;19.80;63.70
49731;DHT22;35622;52.008;5.426;2022-08-19T01:18:42;19.70;63.60
49731;DHT22;35622;52.008;5.426;2022-08-19T01:23:54;19.70;63.50
49731;DHT22;35622;52.008;5.426;2022-08-19T01:26:22;19.70;63.50
49731;DHT22;35622;52.008;5.426;2022-08-19T01:28:50;19.70;63.50
49731;DHT22;35622;52.008;5.426;2022-08-19T01:31:19;19.60;63.70
49731;DHT22;35622;52.008;5.426;2022-08-19T01:33:47;19.60;63.80
49731;DHT22;35622;52.008;5.426;2022-08-19T01:36:33;19.60;63.80
49731;DHT22;35622;52.008;5.426;2022-08-19T01:39:03;19.60;63.80
49731;DHT22;35622;52.008;5.426;2022-08-19T01:41:28;19.50;63.80
49731;DHT22;35622;52.008;5.426;2022-08-19T01:43:54;19.50;63.70
49731;DHT22;35622;52.008;5.426;2022-08-19T01:46:22;19.50;63.70
49731;DHT22;35622;52.008;5.426;2022-08-19T01:48:47;19.50;63.80
49731;DHT22;35622;52.008;5.426;2022-08-19T01:51:14;19.40;63.70
49731;DHT22;35622;52.008;5.426;2022-08-19T01:53:40;19.40;63.80
49731;DHT22;35622;52.008;5.426;2022-08-19T01:56:06;19.40;63.90
49731;DHT22;35622;52.008;5.426;2022-08-19T01:58:36;19.40;64.00
49731;DHT22;35622;52.008;5.426;2022-08-19T02:01:04;19.40;64.10
49731;DHT22;35622;52.008;5.426;2022-08-19T02:03:30;19.40;64.10
49731;DHT22;35622;52.008;5.426;2022-08-19T02:05:58;19.30;64.20
49731;DHT22;35622;52.008;5.426;2022-08-19T02:08:26;19.40;64.30
49731;DHT22;35622;52.008;5.426;2022-08-19T02:10:52;19.30;64.20
49731;DHT22;35622;52.008;5.426;2022-08-19T02:13:18;19.40;64.30
49731;DHT22;35622;52.008;5.426;2022-08-19T02:15:44;19.30;64.20
49731;DHT22;35622;52.008;5.426;2022-08-19T02:18:10;19.30;64.30
49731;DHT22;35622;52.008;5.426;2022-08-19T02:20:37;19.30;64.40
49731;DHT22;35622;52.008;5.426;2022-08-19T02:23:04;19.20;64.30
49731;DHT22;35622;52.008;5.426;2022-08-19T02:25:30;19.20;64.40
49731;DHT22;35622;52.008;5.426;2022-08-19T02:27:56;19.20;64.50
49731;DHT22;35622;52.008;5.426;2022-08-19T02:30:22;19.20;64.50
49731;DHT22;35622;52.008;5.426;2022-08-19T02:32:47;19.20;64.60
49731;DHT22;35622;52.008;5.426;2022-08-19T02:35:14;19.20;64.60
49731;DHT22;35622;52.008;5.426;2022-08-19T02:37:40;19.20;64.60
49731;DHT22;35622;52.008;5.426;2022-08-19T02:40:25;19.20;64.60
49731;DHT22;35622;52.008;5.426;2022-08-19T02:42:50;19.10;64.70
49731;DHT22;35622;52.008;5.426;2022-08-19T02:45:16;19.10;64.90
49731;DHT22;35622;52.008;5.426;2022-08-19T02:47:42;19.20;65.00
49731;DHT22;35622;52.008;5.426;2022-08-19T02:50:08;19.20;65.00
49731;DHT22;35622;52.008;5.426;2022-08-19T02:52:34;19.20;65.00
49731;DHT22;35622;52.008;5.426;2022-08-19T02:55:00;19.10;65.00
49731;DHT22;35622;52.008;5.426;2022-08-19T02:57:26;19.20;65.00
49731;DHT22;35622;52.008;5.426;2022-08-19T02:59:53;19.20;65.00
49731;DHT22;35622;52.008;5.426;2022-08-19T03:02:18;19.20;65.10
49731;DHT22;35622;52.008;5.426;2022-08-19T03:04:44;19.10;65.00
49731;DHT22;35622;52.008;5.426;2022-08-19T03:07:14;19.10;65.10
49731;DHT22;35622;52.008;5.426;2022-08-19T03:09:40;19.10;65.20
49731;DHT22;35622;52.008;5.426;2022-08-19T03:12:05;19.10;65.20
49731;DHT22;35622;52.008;5.426;2022-08-19T03:14:34;19.10;65.20
49731;DHT22;35622;52.008;5.426;2022-08-19T03:17:01;19.10;65.20
49731;DHT22;35622;52.008;5.426;2022-08-19T03:19:27;19.10;65.20
49731;DHT22;35622;52.008;5.426;2022-08-19T03:21:53;19.10;65.20
49731;DHT22;35622;52.008;5.426;2022-08-19T03:24:19;19.10;65.20
49731;DHT22;35622;52.008;5.426;2022-08-19T03:26:49;19.10;65.20
49731;DHT22;35622;52.008;5.426;2022-08-19T03:29:16;19.10;65.30
49731;DHT22;35622;52.008;5.426;2022-08-19T03:31:43;19.10;65.10
49731;DHT22;35622;52.008;5.426;2022-08-19T03:34:16;19.00;65.10
49731;DHT22;35622;52.008;5.426;2022-08-19T03:36:42;19.00;65.10
49731;DHT22;35622;52.008;5.426;2022-08-19T03:39:10;19.00;65.10
49731;DHT22;35622;52.008;5.426;2022-08-19T03:41:39;19.00;65.10
49731;DHT22;35622;52.008;5.426;2022-08-19T03:44:05;19.00;65.10
49731;DHT22;35622;52.008;5.426;2022-08-19T03:46:32;19.00;65.00
49731;DHT22;35622;52.008;5.426;2022-08-19T03:49:00;19.00;65.00
49731;DHT22;35622;52.008;5.426;2022-08-19T03:51:35;18.90;65.00
49731;DHT22;35622;52.008;5.426;2022-08-19T03:54:03;18.90;65.00
49731;DHT22;35622;52.008;5.426;2022-08-19T03:56:29;18.90;65.10
49731;DHT22;35622;52.008;5.426;2022-08-19T03:58:56;18.90;65.20
49731;DHT22;35622;52.008;5.426;2022-08-19T04:01:24;18.80;65.10
49731;DHT22;35622;52.008;5.426;2022-08-19T04:03:51;18.80;65.20
49731;DHT22;35622;52.008;5.426;2022-08-19T04:06:21;18.70;65.20
49731;DHT22;35622;52.008;5.426;2022-08-19T04:08:49;18.70;65.40
49731;DHT22;35622;52.008;5.426;2022-08-19T04:11:18;18.70;65.40
49731;DHT22;35622;52.008;5.426;2022-08-19T04:13:48;18.70;65.50
49731;DHT22;35622;52.008;5.426;2022-08-19T04:16:14;18.70;65.30
49731;DHT22;35622;52.008;5.426;2022-08-19T04:18:40;18.70;65.20
49731;DHT22;35622;52.008;5.426;2022-08-19T04:21:07;18.60;65.20
49731;DHT22;35622;52.008;5.426;2022-08-19T04:23:34;18.70;65.30
49731;DHT22;35622;52.008;5.426;2022-08-19T04:26:02;18.60;65.30
49731;DHT22;35622;52.008;5.426;2022-08-19T04:28:28;18.60;65.40
49731;DHT22;35622;52.008;5.426;2022-08-19T04:30:54;18.60;65.50
49731;DHT22;35622;52.008;5.426;2022-08-19T04:33:22;18.60;65.50
49731;DHT22;35622;52.008;5.426;2022-08-19T04:35:50;18.60;65.50
49731;DHT22;35622;52.008;5.426;2022-08-19T04:38:21;18.60;65.50
49731;DHT22;35622;52.008;5.426;2022-08-19T04:40:49;18.60;65.50
49731;DHT22;35622;52.008;5.426;2022-08-19T04:43:36;18.60;65.60
49731;DHT22;35622;52.008;5.426;2022-08-19T04:46:07;18.60;65.70
49731;DHT22;35622;52.008;5.426;2022-08-19T04:48:34;18.60;66.70
49731;DHT22;35622;52.008;5.426;2022-08-19T04:51:00;18.60;65.90
49731;DHT22;35622;52.008;5.426;2022-08-19T04:53:30;18.60;66.00
49731;DHT22;35622;52.008;5.426;2022-08-19T04:55:57;18.60;65.90
49731;DHT22;35622;52.008;5.426;2022-08-19T04:58:25;18.60;65.80
49731;DHT22;35622;52.008;5.426;2022-08-19T05:00:51;18.60;66.00
49731;DHT22;35622;52.008;5.426;2022-08-19T05:03:18;18.70;66.10
49731;DHT22;35622;52.008;5.426;2022-08-19T05:05:45;18.70;66.20
49731;DHT22;35622;52.008;5.426;2022-08-19T05:08:21;18.80;66.20
49731;DHT22;35622;52.008;5.426;2022-08-19T05:10:48;18.80;66.10
49731;DHT22;35622;52.008;5.426;2022-08-19T05:13:15;18.80;67.10
49731;DHT22;35622;52.008;5.426;2022-08-19T05:15:42;18.90;66.10
49731;DHT22;35622;52.008;5.426;2022-08-19T05:18:08;19.00;66.10
49731;DHT22;35622;52.008;5.426;2022-08-19T05:20:52;19.10;66.00
49731;DHT22;35622;52.008;5.426;2022-08-19T05:23:36;19.20;66.00
49731;DHT22;35622;52.008;5.426;2022-08-19T05:26:02;19.20;65.90
49731;DHT22;35622;52.008;5.426;2022-08-19T05:28:27;19.30;65.80
49731;DHT22;35622;52.008;5.426;2022-08-19T05:30:53;19.40;65.90
49731;DHT22;35622;52.008;5.426;2022-08-19T05:33:21;19.60;65.90
49731;DHT22;35622;52.008;5.426;2022-08-19T05:35:48;19.80;65.70
49731;DHT22;35622;52.008;5.426;2022-08-19T05:38:16;19.90;65.30
49731;DHT22;35622;52.008;5.426;2022-08-19T05:40:42;20.20;65.30
49731;DHT22;35622;52.008;5.426;2022-08-19T05:43:12;20.40;64.80
49731;DHT22;35622;52.008;5.426;2022-08-19T05:45:41;20.60;64.40
49731;DHT22;35622;52.008;5.426;2022-08-19T05:48:08;20.80;64.10
49731;DHT22;35622;52.008;5.426;2022-08-19T05:50:37;20.90;63.70
49731;DHT22;35622;52.008;5.426;2022-08-19T05:53:03;21.00;63.50
49731;DHT22;35622;52.008;5.426;2022-08-19T05:55:28;21.20;63.10
49731;DHT22;35622;52.008;5.426;2022-08-19T05:57:54;21.30;63.00
49731;DHT22;35622;52.008;5.426;2022-08-19T06:00:20;21.40;62.70
49731;DHT22;35622;52.008;5.426;2022-08-19T06:02:45;21.40;62.40
49731;DHT22;35622;52.008;5.426;2022-08-19T06:05:11;21.60;62.40
49731;DHT22;35622;52.008;5.426;2022-08-19T06:07:38;21.70;62.10
49731;DHT22;35622;52.008;5.426;2022-08-19T06:10:08;21.80;62.00
49731;DHT22;35622;52.008;5.426;2022-08-19T06:12:35;22.00;62.50
49731;DHT22;35622;52.008;5.426;2022-08-19T06:15:03;22.50;62.50
49731;DHT22;35622;52.008;5.426;2022-08-19T06:17:29;22.90;61.30
49731;DHT22;35622;52.008;5.426;2022-08-19T06:19:56;23.30;60.10
49731;DHT22;35622;52.008;5.426;2022-08-19T06:22:22;23.50;59.20
49731;DHT22;35622;52.008;5.426;2022-08-19T06:24:48;23.90;58.80
49731;DHT22;35622;52.008;5.426;2022-08-19T06:27:18;24.20;58.10
49731;DHT22;35622;52.008;5.426;2022-08-19T06:29:43;24.40;57.30
49731;DHT22;35622;52.008;5.426;2022-08-19T06:32:09;24.70;56.70
49731;DHT22;35622;52.008;5.426;2022-08-19T06:34:34;24.90;56.10
49731;DHT22;35622;52.008;5.426;2022-08-19T06:37:01;24.90;55.70
49731;DHT22;35622;52.008;5.426;2022-08-19T06:39:30;25.00;55.70
49731;DHT22;35622;52.008;5.426;2022-08-19T06:42:00;24.90;55.70
49731;DHT22;35622;52.008;5.426;2022-08-19T06:44:27;24.90;55.70
49731;DHT22;35622;52.008;5.426;2022-08-19T06:46:54;24.90;56.10
49731;DHT22;35622;52.008;5.426;2022-08-19T06:49:20;24.80;56.30
49731;DHT22;35622;52.008;5.426;2022-08-19T06:51:47;24.70;56.60
49731;DHT22;35622;52.008;5.426;2022-08-19T06:54:14;24.70;56.90
49731;DHT22;35622;52.008;5.426;2022-08-19T06:56:40;24.60;57.10
49731;DHT22;35622;52.008;5.426;2022-08-19T06:59:14;24.40;57.70
49731;DHT22;35622;52.008;5.426;2022-08-19T07:01:49;24.30;58.30
49731;DHT22;35622;52.008;5.426;2022-08-19T07:04:19;24.40;58.70
49731;DHT22;35622;52.008;5.426;2022-08-19T07:06:46;24.50;59.10
49731;DHT22;35622;52.008;5.426;2022-08-19T07:09:14;24.60;59.10
49731;DHT22;35622;52.008;5.426;2022-08-19T07:11:47;24.60;58.90
49731;DHT22;35622;52.008;5.426;2022-08-19T07:14:14;24.70;59.00
49731;DHT22;35622;52.008;5.426;2022-08-19T07:16:41;24.90;59.00
49731;DHT22;35622;52.008;5.426;2022-08-19T07:19:06;25.00;59.00
49731;DHT22;35622;52.008;5.426;2022-08-19T07:21:32;25.20;59.00
49731;DHT22;35622;52.008;5.426;2022-08-19T07:23:59;25.40;58.60
49731;DHT22;35622;52.008;5.426;2022-08-19T07:26:29;25.70;58.20
49731;DHT22;35622;52.008;5.426;2022-08-19T07:28:56;25.70;58.00
49731;DHT22;35622;52.008;5.426;2022-08-19T07:31:25;25.90;57.70
49731;DHT22;35622;52.008;5.426;2022-08-19T07:33:52;25.90;57.50
49731;DHT22;35622;52.008;5.426;2022-08-19T07:36:22;26.20;57.40
49731;DHT22;35622;52.008;5.426;2022-08-19T07:38:50;26.30;56.50
49731;DHT22;35622;52.008;5.426;2022-08-19T07:41:27;26.50;55.50
49731;DHT22;35622;52.008;5.426;2022-08-19T07:43:54;26.80;54.90
49731;DHT22;35622;52.008;5.426;2022-08-19T07:46:20;27.20;54.00
49731;DHT22;35622;52.008;5.426;2022-08-19T07:48:48;27.70;53.40
49731;DHT22;35622;52.008;5.426;2022-08-19T07:51:18;28.10;52.00
49731;DHT22;35622;52.008;5.426;2022-08-19T07:53:44;28.40;51.40
49731;DHT22;35622;52.008;5.426;2022-08-19T07:56:12;30.10;50.00
49731;DHT22;35622;52.008;5.426;2022-08-19T07:58:42;31.20;47.70
49731;DHT22;35622;52.008;5.426;2022-08-19T08:01:13;31.80;44.60
49731;DHT22;35622;52.008;5.426;2022-08-19T08:03:39;31.50;42.90
49731;DHT22;35622;52.008;5.426;2022-08-19T08:06:24;31.00;43.30
49731;DHT22;35622;52.008;5.426;2022-08-19T08:09:08;30.60;43.70
49731;DHT22;35622;52.008;5.426;2022-08-19T08:12:00;32.10;44.00
49731;DHT22;35622;52.008;5.426;2022-08-19T08:16:54;37.70;32.60
49731;DHT22;35622;52.008;5.426;2022-08-19T08:19:22;39.30;29.60
49731;DHT22;35622;52.008;5.426;2022-08-19T08:21:48;39.20;28.30
49731;DHT22;35622;52.008;5.426;2022-08-19T08:24:15;39.90;28.20
49731;DHT22;35622;52.008;5.426;2022-08-19T08:26:40;39.50;27.80
49731;DHT22;35622;52.008;5.426;2022-08-19T08:29:07;38.50;28.30
49731;DHT22;35622;52.008;5.426;2022-08-19T08:31:35;37.30;29.50
49731;DHT22;35622;52.008;5.426;2022-08-19T08:34:01;36.60;30.20
49731;DHT22;35622;52.008;5.426;2022-08-19T08:36:26;35.90;31.20
49731;DHT22;35622;52.008;5.426;2022-08-19T08:38:53;35.30;32.70
49731;DHT22;35622;52.008;5.426;2022-08-19T08:41:44;35.20;34.20
49731;DHT22;35622;52.008;5.426;2022-08-19T08:44:45;35.00;33.90
49731;DHT22;35622;52.008;5.426;2022-08-19T08:47:12;34.20;34.10
49731;DHT22;35622;52.008;5.426;2022-08-19T08:49:45;33.50;35.10
49731;DHT22;35622;52.008;5.426;2022-08-19T08:52:22;33.00;36.50
49731;DHT22;35622;52.008;5.426;2022-08-19T08:54:51;32.50;37.40
49731;DHT22;35622;52.008;5.426;2022-08-19T08:57:26;32.40;38.20
49731;DHT22;35622;52.008;5.426;2022-08-19T08:59:54;34.70;36.10
49731;DHT22;35622;52.008;5.426;2022-08-19T09:02:22;37.50;31.80
49731;DHT22;35622;52.008;5.426;2022-08-19T09:04:48;39.70;28.20
49731;DHT22;35622;52.008;5.426;2022-08-19T09:09:56;42.70;23.90
49731;DHT22;35622;52.008;5.426;2022-08-19T09:15:29;41.90;24.20
49731;DHT22;35622;52.008;5.426;2022-08-19T09:18:00;42.10;24.80
49731;DHT22;35622;52.008;5.426;2022-08-19T09:20:27;43.10;23.70
49731;DHT22;35622;52.008;5.426;2022-08-19T09:22:53;42.90;22.90
49731;DHT22;35622;52.008;5.426;2022-08-19T09:25:20;42.10;23.70
49731;DHT22;35622;52.008;5.426;2022-08-19T09:27:50;41.30;23.70
49731;DHT22;35622;52.008;5.426;2022-08-19T09:30:20;40.30;25.50
49731;DHT22;35622;52.008;5.426;2022-08-19T09:32:47;39.50;25.60
49731;DHT22;35622;52.008;5.426;2022-08-19T09:35:14;39.50;26.40
49731;DHT22;35622;52.008;5.426;2022-08-19T09:37:41;38.60;27.00
49731;DHT22;35622;52.008;5.426;2022-08-19T09:40:08;38.20;28.10
49731;DHT22;35622;52.008;5.426;2022-08-19T09:42:34;39.40;27.00
49731;DHT22;35622;52.008;5.426;2022-08-19T09:45:00;41.50;25.70
49731;DHT22;35622;52.008;5.426;2022-08-19T09:47:25;43.30;22.90
49731;DHT22;35622;52.008;5.426;2022-08-19T09:49:51;44.60;22.30
49731;DHT22;35622;52.008;5.426;2022-08-19T09:52:16;45.00;21.60
49731;DHT22;35622;52.008;5.426;2022-08-19T09:54:42;44.30;21.90
49731;DHT22;35622;52.008;5.426;2022-08-19T09:57:08;43.80;21.90
49731;DHT22;35622;52.008;5.426;2022-08-19T09:59:34;43.10;22.30
49731;DHT22;35622;52.008;5.426;2022-08-19T10:02:00;41.80;22.80
49731;DHT22;35622;52.008;5.426;2022-08-19T10:04:25;40.40;24.40
49731;DHT22;35622;52.008;5.426;2022-08-19T10:07:17;39.30;25.60
49731;DHT22;35622;52.008;5.426;2022-08-19T10:09:43;38.20;27.10
49731;DHT22;35622;52.008;5.426;2022-08-19T10:12:08;37.20;27.90
49731;DHT22;35622;52.008;5.426;2022-08-19T10:14:34;36.20;29.40
49731;DHT22;35622;52.008;5.426;2022-08-19T10:17:01;35.20;30.90
49731;DHT22;35622;52.008;5.426;2022-08-19T10:19:28;34.90;32.70
49731;DHT22;35622;52.008;5.426;2022-08-19T10:21:57;34.80;33.40
49731;DHT22;35622;52.008;5.426;2022-08-19T10:24:23;34.50;33.10
49731;DHT22;35622;52.008;5.426;2022-08-19T10:26:49;34.40;33.40
49731;DHT22;35622;52.008;5.426;2022-08-19T10:29:15;34.40;33.20
49731;DHT22;35622;52.008;5.426;2022-08-19T10:31:42;34.30;34.40
49731;DHT22;35622;52.008;5.426;2022-08-19T10:34:08;35.00;34.20
49731;DHT22;35622;52.008;5.426;2022-08-19T10:36:36;36.30;31.40
49731;DHT22;35622;52.008;5.426;2022-08-19T10:39:05;37.30;29.50
49731;DHT22;35622;52.008;5.426;2022-08-19T10:41:34;37.20;29.20
49731;DHT22;35622;52.008;5.426;2022-08-19T10:44:07;37.20;29.30
49731;DHT22;35622;52.008;5.426;2022-08-19T10:46:36;36.50;29.10
49731;DHT22;35622;52.008;5.426;2022-08-19T10:49:04;35.80;30.60
49731;DHT22;35622;52.008;5.426;2022-08-19T10:51:31;36.90;30.50
49731;DHT22;35622;52.008;5.426;2022-08-19T10:54:16;38.50;28.80
49731;DHT22;35622;52.008;5.426;2022-08-19T10:56:42;40.20;26.60
49731;DHT22;35622;52.008;5.426;2022-08-19T10:59:27;40.40;25.70
49731;DHT22;35622;52.008;5.426;2022-08-19T11:01:54;39.70;26.20
49731;DHT22;35622;52.008;5.426;2022-08-19T11:04:23;39.00;27.70
49731;DHT22;35622;52.008;5.426;2022-08-19T11:06:49;38.80;27.80
49731;DHT22;35622;52.008;5.426;2022-08-19T11:09:17;38.10;28.20
49731;DHT22;35622;52.008;5.426;2022-08-19T11:11:44;37.00;29.20
49731;DHT22;35622;52.008;5.426;2022-08-19T11:14:17;36.00;30.00
49731;DHT22;35622;52.008;5.426;2022-08-19T11:16:45;36.20;31.10
49731;DHT22;35622;52.008;5.426;2022-08-19T11:19:12;35.70;31.10
49731;DHT22;35622;52.008;5.426;2022-08-19T11:21:41;35.60;32.20
49731;DHT22;35622;52.008;5.426;2022-08-19T11:24:10;35.70;32.30
49731;DHT22;35622;52.008;5.426;2022-08-19T11:26:37;35.10;32.70
49731;DHT22;35622;52.008;5.426;2022-08-19T11:29:04;36.10;31.90
49731;DHT22;35622;52.008;5.426;2022-08-19T11:31:34;37.10;29.80
49731;DHT22;35622;52.008;5.426;2022-08-19T11:34:07;37.30;29.70
49731;DHT22;35622;52.008;5.426;2022-08-19T11:36:36;37.50;29.20
49731;DHT22;35622;52.008;5.426;2022-08-19T11:39:04;36.40;30.60
49731;DHT22;35622;52.008;5.426;2022-08-19T11:41:30;37.50;30.00
49731;DHT22;35622;52.008;5.426;2022-08-19T11:43:56;37.90;29.20
49731;DHT22;35622;52.008;5.426;2022-08-19T11:46:23;38.80;28.60
49731;DHT22;35622;52.008;5.426;2022-08-19T11:48:49;39.50;27.70
49731;DHT22;35622;52.008;5.426;2022-08-19T11:51:20;39.70;27.00
49731;DHT22;35622;52.008;5.426;2022-08-19T11:53:52;40.70;26.40
49731;DHT22;35622;52.008;5.426;2022-08-19T11:56:19;41.00;25.30
49731;DHT22;35622;52.008;5.426;2022-08-19T11:58:45;40.70;25.70
49731;DHT22;35622;52.008;5.426;2022-08-19T12:01:12;40.00;25.90
49731;DHT22;35622;52.008;5.426;2022-08-19T12:03:42;40.00;26.10
49731;DHT22;35622;52.008;5.426;2022-08-19T12:06:10;39.40;26.90
49731;DHT22;35622;52.008;5.426;2022-08-19T12:08:38;39.70;27.20
49731;DHT22;35622;52.008;5.426;2022-08-19T12:11:04;39.50;26.40
49731;DHT22;35622;52.008;5.426;2022-08-19T12:13:31;38.60;28.10
49731;DHT22;35622;52.008;5.426;2022-08-19T12:15:56;38.20;27.90
49731;DHT22;35622;52.008;5.426;2022-08-19T12:18:23;37.80;28.90
49731;DHT22;35622;52.008;5.426;2022-08-19T12:20:50;37.00;29.50
49731;DHT22;35622;52.008;5.426;2022-08-19T12:23:16;38.30;29.00
49731;DHT22;35622;52.008;5.426;2022-08-19T12:25:47;38.80;27.80
49731;DHT22;35622;52.008;5.426;2022-08-19T12:28:20;39.30;27.80
49731;DHT22;35622;52.008;5.426;2022-08-19T12:30:47;39.10;28.00
49731;DHT22;35622;52.008;5.426;2022-08-19T12:33:13;38.20;27.80
49731;DHT22;35622;52.008;5.426;2022-08-19T12:35:43;37.90;29.40
49731;DHT22;35622;52.008;5.426;2022-08-19T12:38:11;37.50;29.40
49731;DHT22;35622;52.008;5.426;2022-08-19T12:40:37;37.20;30.50
49731;DHT22;35622;52.008;5.426;2022-08-19T12:43:02;36.80;31.20
49731;DHT22;35622;52.008;5.426;2022-08-19T12:45:28;36.30;31.90
49731;DHT22;35622;52.008;5.426;2022-08-19T12:47:54;35.80;32.60
49731;DHT22;35622;52.008;5.426;2022-08-19T12:50:20;35.10;33.10
49731;DHT22;35622;52.008;5.426;2022-08-19T12:52:47;34.80;34.50
49731;DHT22;35622;52.008;5.426;2022-08-19T12:55:16;34.70;34.80
49731;DHT22;35622;52.008;5.426;2022-08-19T12:57:44;34.50;35.60
49731;DHT22;35622;52.008;5.426;2022-08-19T13:00:14;34.40;35.70
49731;DHT22;35622;52.008;5.426;2022-08-19T13:02:43;34.60;36.20
49731;DHT22;35622;52.008;5.426;2022-08-19T13:05:12;34.00;34.50
49731;DHT22;35622;52.008;5.426;2022-08-19T13:07:39;33.70;35.10
49731;DHT22;35622;52.008;5.426;2022-08-19T13:10:07;33.60;36.50
49731;DHT22;35622;52.008;5.426;2022-08-19T13:12:33;33.40;37.10
49731;DHT22;35622;52.008;5.426;2022-08-19T13:14:58;33.10;38.40
49731;DHT22;35622;52.008;5.426;2022-08-19T13:17:24;32.90;39.20
49731;DHT22;35622;52.008;5.426;2022-08-19T13:19:50;32.50;39.80
49731;DHT22;35622;52.008;5.426;2022-08-19T13:22:16;32.20;40.70
49731;DHT22;35622;52.008;5.426;2022-08-19T13:24:42;32.10;41.30
49731;DHT22;35622;52.008;5.426;2022-08-19T13:27:08;32.00;41.60
49731;DHT22;35622;52.008;5.426;2022-08-19T13:29:36;32.30;41.10
49731;DHT22;35622;52.008;5.426;2022-08-19T13:32:20;32.40;40.40
49731;DHT22;35622;52.008;5.426;2022-08-19T13:35:05;32.50;40.60
49731;DHT22;35622;52.008;5.426;2022-08-19T13:37:31;32.20;40.50
49731;DHT22;35622;52.008;5.426;2022-08-19T13:40:15;32.20;41.40
49731;DHT22;35622;52.008;5.426;2022-08-19T13:42:43;32.10;41.40
49731;DHT22;35622;52.008;5.426;2022-08-19T13:45:10;31.70;40.70
49731;DHT22;35622;52.008;5.426;2022-08-19T13:47:36;31.70;41.20
49731;DHT22;35622;52.008;5.426;2022-08-19T13:50:17;31.80;42.60
49731;DHT22;35622;52.008;5.426;2022-08-19T13:52:43;31.80;42.80
49731;DHT22;35622;52.008;5.426;2022-08-19T13:55:11;31.70;42.90
49731;DHT22;35622;52.008;5.426;2022-08-19T13:57:37;31.50;43.80
49731;DHT22;35622;52.008;5.426;2022-08-19T14:00:13;31.30;45.40
49731;DHT22;35622;52.008;5.426;2022-08-19T14:02:41;31.10;47.80
49731;DHT22;35622;52.008;5.426;2022-08-19T14:05:10;30.70;47.30
49731;DHT22;35622;52.008;5.426;2022-08-19T14:07:37;30.20;48.60
49731;DHT22;35622;52.008;5.426;2022-08-19T14:10:04;29.60;49.60
49731;DHT22;35622;52.008;5.426;2022-08-19T14:12:36;29.20;50.80
49731;DHT22;35622;52.008;5.426;2022-08-19T14:15:04;28.80;51.70
49731;DHT22;35622;52.008;5.426;2022-08-19T14:17:39;28.60;52.50
49731;DHT22;35622;52.008;5.426;2022-08-19T14:20:06;28.50;53.30
49731;DHT22;35622;52.008;5.426;2022-08-19T14:22:39;28.40;53.10
49731;DHT22;35622;52.008;5.426;2022-08-19T14:25:08;28.30;53.30
49731;DHT22;35622;52.008;5.426;2022-08-19T14:27:40;28.30;54.00
49731;DHT22;35622;52.008;5.426;2022-08-19T14:30:08;28.30;54.50
49731;DHT22;35622;52.008;5.426;2022-08-19T14:32:34;28.30;53.90
49731;DHT22;35622;52.008;5.426;2022-08-19T14:35:01;28.40;54.30
49731;DHT22;35622;52.008;5.426;2022-08-19T14:37:27;28.50;54.40
49731;DHT22;35622;52.008;5.426;2022-08-19T14:39:52;28.70;54.00
49731;DHT22;35622;52.008;5.426;2022-08-19T14:42:18;28.70;54.00
49731;DHT22;35622;52.008;5.426;2022-08-19T14:44:44;28.80;53.90
49731;DHT22;35622;52.008;5.426;2022-08-19T14:47:10;28.80;53.60
49731;DHT22;35622;52.008;5.426;2022-08-19T14:49:38;28.70;53.30
49731;DHT22;35622;52.008;5.426;2022-08-19T14:52:05;28.70;53.40
49731;DHT22;35622;52.008;5.426;2022-08-19T14:54:32;28.80;53.40
49731;DHT22;35622;52.008;5.426;2022-08-19T14:56:58;28.90;53.50
49731;DHT22;35622;52.008;5.426;2022-08-19T14:59:24;28.90;53.40
49731;DHT22;35622;52.008;5.426;2022-08-19T15:01:50;29.00;53.50
49731;DHT22;35622;52.008;5.426;2022-08-19T15:04:16;29.10;53.40
49731;DHT22;35622;52.008;5.426;2022-08-19T15:06:44;29.10;53.30
49731;DHT22;35622;52.008;5.426;2022-08-19T15:09:09;29.00;53.40
49731;DHT22;35622;52.008;5.426;2022-08-19T15:11:35;29.00;53.40
49731;DHT22;35622;52.008;5.426;2022-08-19T15:14:02;28.90;53.50
49731;DHT22;35622;52.008;5.426;2022-08-19T15:16:28;28.80;53.80
49731;DHT22;35622;52.008;5.426;2022-08-19T15:18:56;29.00;53.60
49731;DHT22;35622;52.008;5.426;2022-08-19T15:21:23;29.00;53.50
49731;DHT22;35622;52.008;5.426;2022-08-19T15:23:50;29.10;53.20
49731;DHT22;35622;52.008;5.426;2022-08-19T15:26:17;29.20;53.40
49731;DHT22;35622;52.008;5.426;2022-08-19T15:28:44;29.30;53.80
49731;DHT22;35622;52.008;5.426;2022-08-19T15:31:11;29.50;53.70
49731;DHT22;35622;52.008;5.426;2022-08-19T15:33:38;29.80;53.70
49731;DHT22;35622;52.008;5.426;2022-08-19T15:36:06;29.90;53.50
49731;DHT22;35622;52.008;5.426;2022-08-19T15:38:33;29.90;52.50
49731;DHT22;35622;52.008;5.426;2022-08-19T15:41:00;29.80;52.90
49731;DHT22;35622;52.008;5.426;2022-08-19T15:43:47;29.70;52.50
49731;DHT22;35622;52.008;5.426;2022-08-19T15:46:17;29.60;53.10
49731;DHT22;35622;52.008;5.426;2022-08-19T15:48:43;29.50;53.60